Terminal Aerodrome Forecast
Issued by NWS Los Angeles, CA

Home | Current Version | Previous Version | Text Only | Print | Product List | Glossary On
Versions: 1 2 3 4 5 6 7 8 9 10 11 12 13 14 15
000
FTUS46 KLOX 181200 AAA
TAFSMX
TAF AMD
KSMX 181231Z 1813/1912 VRB03KT 1/4SM FG VV001
     FM181600 VRB03KT 2SM BR BKN003
     FM181700 VRB03KT P6SM SKC
     FM182000 30012KT P6SM SKC
     FM190400 VRB03KT P6SM SKC
     FM190600 VRB03KT 3SM BR BKN005=

USA.gov is the U.S. government's official web portal to all federal, state and local government web resources and services.